createdAt,value
2022-11-06T00:00:16.077Z,7.72
2022-11-06T00:02:42.862Z,8.25
2022-11-06T00:05:28.634Z,7.70
2022-11-06T00:07:55.156Z,7.50
2022-11-06T00:10:21.998Z,7.35
2022-11-06T00:12:49.124Z,7.72
2022-11-06T00:15:15.976Z,7.47
2022-11-06T00:17:42.412Z,7.47
2022-11-06T00:20:09.829Z,7.50
2022-11-06T00:22:37.176Z,7.82
2022-11-06T00:25:04.999Z,7.55
2022-11-06T00:27:31.468Z,8.73
2022-11-06T00:29:57.857Z,8.40
2022-11-06T00:32:24.254Z,7.80
2022-11-06T00:34:50.657Z,7.95
2022-11-06T00:37:17.057Z,7.40
2022-11-06T00:39:43.453Z,7.97
2022-11-06T00:42:10.032Z,8.65
2022-11-06T00:44:36.437Z,8.35
2022-11-06T00:47:02.894Z,8.30
2022-11-06T00:49:29.259Z,8.90
2022-11-06T00:51:55.665Z,7.85
2022-11-06T00:54:22.071Z,7.78
2022-11-06T00:56:48.499Z,7.95
2022-11-06T00:59:14.943Z,8.30
2022-11-06T01:01:44.182Z,7.78
2022-11-06T01:04:16.348Z,8.57
2022-11-06T01:06:45.286Z,8.40
2022-11-06T01:09:14.304Z,7.90
2022-11-06T01:12:11.657Z,7.38
2022-11-06T01:14:30.769Z,7.18
2022-11-06T01:16:57.237Z,7.95
2022-11-06T01:19:24.036Z,8.15
2022-11-06T01:21:52.775Z,7.93
2022-11-06T01:24:24.913Z,7.63
2022-11-06T01:27:25.051Z,6.88
2022-11-06T01:29:38.226Z,7.70
2022-11-06T01:32:05.070Z,7.57
2022-11-06T01:34:31.662Z,8.00
2022-11-06T01:36:58.089Z,8.75
2022-11-06T01:39:24.489Z,8.35
2022-11-06T01:41:52.567Z,8.38
2022-11-06T01:44:40.590Z,8.38
2022-11-06T01:47:24.865Z,9.18
2022-11-06T01:49:55.180Z,8.15
2022-11-06T01:52:23.488Z,7.65
2022-11-06T01:54:53.122Z,8.60
2022-11-06T01:57:19.830Z,8.27
2022-11-06T01:59:46.565Z,8.32
2022-11-06T02:02:16.007Z,8.45
2022-11-06T02:04:45.308Z,8.75
2022-11-06T02:07:16.647Z,8.82
2022-11-06T02:09:43.324Z,9.75
2022-11-06T02:12:28.634Z,8.55
2022-11-06T02:15:10.795Z,10.32
2022-11-06T02:17:46.191Z,8.73
2022-11-06T02:20:27.703Z,8.13
2022-11-06T02:23:15.773Z,8.52
2022-11-06T02:26:08.817Z,8.60
2022-11-06T02:28:41.414Z,9.60
2022-11-06T02:31:16.256Z,8.60
2022-11-06T02:33:54.269Z,10.02
2022-11-06T02:36:27.461Z,10.65
2022-11-06T02:38:58.868Z,9.90
2022-11-06T02:41:39.383Z,10.18
2022-11-06T02:44:13.708Z,10.38
2022-11-06T02:46:46.671Z,10.48
2022-11-06T02:49:47.221Z,10.40
2022-11-06T02:52:35.872Z,10.68
2022-11-06T02:55:28.356Z,10.05
2022-11-06T02:58:08.960Z,10.82
2022-11-06T03:00:37.558Z,10.48
2022-11-06T03:03:17.021Z,9.48
2022-11-06T03:06:09.879Z,9.63
2022-11-06T03:08:59.087Z,9.98
2022-11-06T03:11:29.679Z,10.32
2022-11-06T03:13:58.940Z,9.38
2022-11-06T03:16:57.654Z,9.93
2022-11-06T03:20:03.488Z,9.35
2022-11-06T03:22:40.351Z,9.90
2022-11-06T03:25:18.139Z,8.82
2022-11-06T03:28:03.025Z,8.57
2022-11-06T03:30:31.913Z,10.38
2022-11-06T03:33:13.609Z,9.20
2022-11-06T03:40:47.629Z,9.65
2022-11-06T03:43:17.905Z,10.57
2022-11-06T03:45:47.073Z,11.50
2022-11-06T03:48:15.784Z,9.57
2022-11-06T03:51:13.639Z,10.77
2022-11-06T03:53:48.365Z,9.90
2022-11-06T03:56:25.148Z,9.52
2022-11-06T03:58:53.732Z,10.15
2022-11-06T04:01:25.300Z,10.73
2022-11-06T04:06:30.404Z,9.27
2022-11-06T04:09:20.074Z,10.00
2022-11-06T04:12:07.935Z,10.18
2022-11-06T04:14:38.510Z,9.85
2022-11-06T04:17:08.751Z,6.88
2022-11-06T04:19:35.252Z,10.05
2022-11-06T04:22:23.395Z,10.60
2022-11-06T04:25:46.189Z,10.18
2022-11-06T04:28:31.108Z,10.38
2022-11-06T04:31:12.145Z,9.75
2022-11-06T04:34:10.776Z,10.00
2022-11-06T04:36:50.668Z,9.65
2022-11-06T04:39:29.882Z,10.02
2022-11-06T04:42:23.587Z,9.55
2022-11-06T04:44:55.221Z,10.02
2022-11-06T04:49:52.789Z,9.63
2022-11-06T04:52:23.894Z,11.38
2022-11-06T04:54:50.973Z,11.57
2022-11-06T04:57:17.457Z,10.32
2022-11-06T04:59:43.948Z,11.27
2022-11-06T05:02:11.180Z,11.90
2022-11-06T05:04:37.692Z,10.63
2022-11-06T05:07:04.145Z,10.63
2022-11-06T05:09:30.844Z,10.77
2022-11-06T05:11:57.329Z,11.45
2022-11-06T05:14:24.216Z,10.65
2022-11-06T05:16:50.652Z,11.80
2022-11-06T05:19:17.169Z,10.90
2022-11-06T05:22:01.994Z,10.15
2022-11-06T05:24:28.672Z,11.07
2022-11-06T05:26:59.294Z,10.00
2022-11-06T05:29:26.756Z,9.80
2022-11-06T05:31:53.203Z,11.65
2022-11-06T05:34:19.687Z,10.70
2022-11-06T05:36:46.211Z,11.25
2022-11-06T05:39:12.724Z,10.20
2022-11-06T05:41:39.178Z,9.98
2022-11-06T05:44:05.759Z,11.32
2022-11-06T05:46:49.569Z,9.93
2022-11-06T05:49:17.425Z,10.30
2022-11-06T05:51:43.919Z,10.85
2022-11-06T05:54:10.329Z,10.57
2022-11-06T05:56:36.781Z,10.60
2022-11-06T05:59:04.138Z,10.82
2022-11-06T06:01:30.770Z,9.82
2022-11-06T06:03:57.246Z,10.38
2022-11-06T06:06:23.713Z,10.60
2022-11-06T06:08:50.246Z,10.52
2022-11-06T06:11:16.692Z,11.48
2022-11-06T06:13:43.084Z,11.23
2022-11-06T06:16:09.484Z,12.18
2022-11-06T06:18:36.047Z,15.38
2022-11-06T06:21:02.545Z,11.30
2022-11-06T06:23:28.965Z,11.18
2022-11-06T06:25:57.277Z,10.63
2022-11-06T06:28:23.682Z,11.30
2022-11-06T06:30:50.158Z,12.13
2022-11-06T06:33:16.570Z,11.98
2022-11-06T06:35:43.023Z,11.52
2022-11-06T06:38:09.607Z,11.82
2022-11-06T06:40:36.119Z,11.02
2022-11-06T06:43:02.508Z,11.45
2022-11-06T06:45:29.578Z,11.32
2022-11-06T06:48:01.121Z,13.73
2022-11-06T06:52:58.187Z,11.23
2022-11-06T06:55:25.512Z,11.73
2022-11-06T06:58:02.112Z,12.57
2022-11-06T07:00:29.358Z,11.55
2022-11-06T07:02:55.923Z,11.88
2022-11-06T07:05:22.756Z,11.45
2022-11-06T07:07:49.263Z,11.88
2022-11-06T07:10:15.880Z,11.25
2022-11-06T07:12:42.297Z,11.63
2022-11-06T07:15:09.261Z,11.85
2022-11-06T07:17:35.884Z,11.68
2022-11-06T07:20:03.259Z,11.15
2022-11-06T07:22:35.585Z,11.90
2022-11-06T07:25:04.159Z,11.07
2022-11-06T07:27:30.766Z,11.55
2022-11-06T07:29:57.300Z,11.13
2022-11-06T07:32:23.709Z,11.02
2022-11-06T07:34:50.165Z,10.95
2022-11-06T07:37:16.626Z,11.23
2022-11-06T07:39:43.035Z,11.35
2022-11-06T07:42:09.559Z,11.90
2022-11-06T07:44:35.965Z,10.80
2022-11-06T07:47:02.415Z,11.38
2022-11-06T07:49:28.868Z,12.15
2022-11-06T07:51:55.267Z,11.77
2022-11-06T07:54:21.632Z,11.73
2022-11-06T07:56:48.192Z,11.27
2022-11-06T07:59:14.666Z,11.60
2022-11-06T08:01:41.275Z,11.43
2022-11-06T08:04:07.852Z,11.98
2022-11-06T08:06:34.318Z,12.18
2022-11-06T08:09:00.832Z,11.80
2022-11-06T08:11:27.668Z,10.43
2022-11-06T08:13:54.122Z,10.88
2022-11-06T08:16:20.502Z,11.02
2022-11-06T08:18:46.900Z,12.05
2022-11-06T08:21:13.533Z,10.15
2022-11-06T08:23:39.947Z,10.20
2022-11-06T08:26:07.278Z,9.98
2022-11-06T08:28:34.396Z,10.23
2022-11-06T08:31:08.060Z,9.82
2022-11-06T08:33:36.367Z,10.10
2022-11-06T08:36:04.466Z,10.45
2022-11-06T08:38:31.317Z,10.27
2022-11-06T08:40:57.707Z,9.40
2022-11-06T08:43:27.398Z,10.40
2022-11-06T08:45:54.083Z,9.32
2022-11-06T08:48:20.634Z,9.75
2022-11-06T08:50:47.025Z,10.27
2022-11-06T08:53:13.833Z,10.30
2022-11-06T08:55:40.610Z,9.55
2022-11-06T08:58:07.946Z,9.05
2022-11-06T09:00:35.183Z,9.27
2022-11-06T09:03:04.828Z,9.10
2022-11-06T09:05:31.409Z,9.10
2022-11-06T09:07:59.038Z,9.52
2022-11-06T09:10:26.501Z,10.15
2022-11-06T09:12:53.022Z,9.98
2022-11-06T09:15:20.164Z,8.95
2022-11-06T09:17:48.553Z,9.40
2022-11-06T09:20:18.814Z,8.23
2022-11-06T09:22:46.268Z,8.27
2022-11-06T09:25:13.339Z,7.32
2022-11-06T09:41:04.201Z,6.45
2022-11-06T09:44:05.654Z,7.40
2022-11-06T09:49:18.428Z,6.50
2022-11-06T09:51:50.721Z,6.45
2022-11-06T09:54:31.184Z,6.15
2022-11-06T09:57:13.355Z,5.45
2022-11-06T09:59:41.435Z,5.60
2022-11-06T10:02:24.021Z,5.40
2022-11-06T10:05:15.107Z,5.35
2022-11-06T10:07:43.818Z,6.00
2022-11-06T10:10:19.452Z,5.82
2022-11-06T10:13:13.644Z,7.15
2022-11-06T10:15:49.576Z,6.10
2022-11-06T10:18:28.762Z,5.53
2022-11-06T10:21:10.788Z,5.03
2022-11-06T10:23:53.175Z,5.22
2022-11-06T10:26:40.847Z,5.18
2022-11-06T10:29:52.112Z,4.85
2022-11-06T10:32:35.245Z,5.10
2022-11-06T10:35:15.944Z,4.93
2022-11-06T10:38:15.032Z,5.28
2022-11-06T10:40:46.280Z,4.97
2022-11-06T10:43:29.273Z,5.38
2022-11-06T10:46:22.318Z,5.65
2022-11-06T10:48:59.428Z,4.95
2022-11-06T10:51:33.584Z,4.68
2022-11-06T10:54:18.615Z,5.03
2022-11-06T10:57:20.583Z,5.10
2022-11-06T10:59:48.583Z,4.57
2022-11-06T11:02:32.027Z,5.40
2022-11-06T11:04:58.838Z,5.65
2022-11-06T11:07:29.391Z,4.45
2022-11-06T11:09:55.872Z,4.20
2022-11-06T11:12:32.834Z,4.82
2022-11-06T11:15:11.966Z,4.80
2022-11-06T11:20:34.410Z,5.00
2022-11-06T11:25:36.139Z,6.20
2022-11-06T11:28:05.052Z,5.90
2022-11-06T11:30:31.751Z,6.43
2022-11-06T11:32:58.688Z,5.32
2022-11-06T11:35:30.724Z,6.45
2022-11-06T11:38:14.455Z,5.30
2022-11-06T11:40:41.485Z,4.53
2022-11-06T11:43:30.307Z,4.85
2022-11-06T11:46:14.556Z,4.47
2022-11-06T11:48:49.696Z,4.45
2022-11-06T11:51:32.347Z,4.05
2022-11-06T11:54:04.547Z,4.13
2022-11-06T11:57:02.295Z,3.30
2022-11-06T11:59:20.976Z,3.50
2022-11-06T12:01:48.602Z,3.40
2022-11-06T12:04:26.480Z,3.45
2022-11-06T12:06:55.200Z,3.22
2022-11-06T12:09:23.125Z,2.90
2022-11-06T12:11:49.939Z,3.35
2022-11-06T12:14:27.301Z,3.03
2022-11-06T12:17:04.226Z,5.00
2022-11-06T12:19:33.331Z,3.90
2022-11-06T12:22:05.561Z,3.40
2022-11-06T12:24:47.330Z,3.33
2022-11-06T12:30:01.389Z,3.65
2022-11-06T12:32:36.909Z,3.22
2022-11-06T12:38:22.520Z,3.15
2022-11-06T12:41:01.846Z,3.00
2022-11-06T12:43:37.350Z,3.13
2022-11-06T12:46:22.473Z,3.00
2022-11-06T12:49:01.118Z,3.10
2022-11-06T12:51:47.531Z,3.10
2022-11-06T12:54:28.886Z,2.88
2022-11-06T12:57:13.588Z,2.78
2022-11-06T13:00:11.009Z,3.00
2022-11-06T13:05:31.247Z,3.10
2022-11-06T13:08:26.252Z,3.03
2022-11-06T13:11:13.070Z,3.15
2022-11-06T13:19:48.535Z,2.70
2022-11-06T13:22:24.299Z,3.00
2022-11-06T13:25:12.657Z,3.10
2022-11-06T13:28:00.645Z,3.35
2022-11-06T13:30:29.579Z,3.40
2022-11-06T13:33:10.732Z,3.28
2022-11-06T13:35:40.204Z,3.42
2022-11-06T13:38:08.520Z,4.22
2022-11-06T13:40:41.415Z,3.25
2022-11-06T13:43:16.924Z,3.03
2022-11-06T13:45:52.993Z,3.58
2022-11-06T13:48:47.250Z,3.20
2022-11-06T13:51:53.224Z,3.50
2022-11-06T13:54:25.515Z,3.25
2022-11-06T13:57:05.856Z,3.92
2022-11-06T14:00:03.212Z,3.47
2022-11-06T14:02:38.460Z,3.20
2022-11-06T14:05:25.975Z,3.42
2022-11-06T14:07:53.779Z,3.47
2022-11-06T14:10:23.764Z,3.10
2022-11-06T14:12:50.774Z,3.10
2022-11-06T14:15:20.143Z,3.38
2022-11-06T14:17:58.600Z,2.80
2022-11-06T14:20:39.453Z,2.90
2022-11-06T14:23:31.081Z,2.80
2022-11-06T14:26:12.454Z,3.15
2022-11-06T14:28:43.629Z,3.78
2022-11-06T14:31:13.407Z,3.10
2022-11-06T14:33:44.681Z,3.53
2022-11-06T14:36:24.026Z,3.28
2022-11-06T14:38:51.510Z,4.20
2022-11-06T14:41:36.067Z,3.28
2022-11-06T14:44:25.039Z,3.08
2022-11-06T14:46:58.922Z,2.65
2022-11-06T14:49:43.699Z,3.30
2022-11-06T14:52:13.887Z,3.13
2022-11-06T14:54:54.960Z,3.15
2022-11-06T14:57:48.891Z,3.03
2022-11-06T15:00:41.607Z,2.90
2022-11-06T15:03:21.996Z,2.72
2022-11-06T15:05:52.438Z,3.08
2022-11-06T15:08:48.037Z,2.55
2022-11-06T15:11:29.719Z,2.92
2022-11-06T15:14:16.389Z,3.13
2022-11-06T15:17:08.933Z,3.08
2022-11-06T15:19:41.334Z,3.13
2022-11-06T15:22:13.523Z,2.85
2022-11-06T15:24:47.798Z,3.22
2022-11-06T15:27:20.352Z,4.22
2022-11-06T15:29:51.998Z,5.15
2022-11-06T15:34:59.911Z,3.88
2022-11-06T15:37:31.569Z,4.13
2022-11-06T15:50:48.274Z,3.50
2022-11-06T15:53:21.388Z,3.03
2022-11-06T15:56:08.734Z,3.33
2022-11-06T15:58:37.487Z,3.60
2022-11-06T16:01:06.107Z,3.20
2022-11-06T16:06:21.404Z,4.15
2022-11-06T16:11:29.510Z,4.45
2022-11-06T16:13:56.191Z,4.30
2022-11-06T16:16:35.812Z,4.07
2022-11-06T16:19:05.172Z,4.03
2022-11-06T16:21:35.666Z,4.30
2022-11-06T16:24:11.027Z,3.88
2022-11-06T16:26:44.145Z,3.63
2022-11-06T16:29:23.885Z,3.78
2022-11-06T16:32:00.887Z,3.95
2022-11-06T16:34:30.058Z,4.28
2022-11-06T16:36:59.205Z,4.03
2022-11-06T16:39:40.260Z,4.53
2022-11-06T16:42:16.659Z,4.22
2022-11-06T16:44:43.135Z,3.17
2022-11-06T16:47:11.172Z,4.50
2022-11-06T16:49:38.670Z,4.00
2022-11-06T16:52:28.019Z,4.78
2022-11-06T16:55:00.566Z,4.30
2022-11-06T16:57:36.048Z,4.35
2022-11-06T17:00:08.834Z,4.40
2022-11-06T17:02:37.917Z,4.40
2022-11-06T17:05:19.877Z,4.82
2022-11-06T17:07:46.334Z,4.97
2022-11-06T17:10:34.356Z,4.53
2022-11-06T17:13:22.418Z,4.53
2022-11-06T17:15:57.551Z,4.60
2022-11-06T17:18:27.050Z,3.97
2022-11-06T17:20:56.399Z,3.92
2022-11-06T17:23:24.795Z,4.20
2022-11-06T17:25:55.956Z,3.72
2022-11-06T17:28:22.724Z,4.03
2022-11-06T17:30:49.382Z,3.65
2022-11-06T17:33:16.378Z,3.67
2022-11-06T17:35:43.090Z,4.28
2022-11-06T17:38:14.408Z,3.83
2022-11-06T17:40:41.676Z,3.95
2022-11-06T17:43:08.176Z,4.63
2022-11-06T17:45:34.619Z,4.30
2022-11-06T17:48:01.029Z,3.90
2022-11-06T17:50:27.554Z,4.32
2022-11-06T17:52:54.039Z,4.45
2022-11-06T17:55:20.687Z,4.90
2022-11-06T17:57:47.141Z,4.60
2022-11-06T18:00:13.966Z,4.55
2022-11-06T18:03:00.424Z,5.18
2022-11-06T18:05:26.877Z,4.22
2022-11-06T18:07:53.274Z,4.97
2022-11-06T18:10:19.789Z,5.13
2022-11-06T18:12:46.261Z,4.68
2022-11-06T18:15:12.979Z,4.30
2022-11-06T18:17:39.369Z,5.63
2022-11-06T18:20:06.419Z,4.72
2022-11-06T18:22:32.784Z,5.13
2022-11-06T18:24:59.310Z,5.80
2022-11-06T18:27:25.759Z,5.40
2022-11-06T18:29:52.193Z,5.45
2022-11-06T18:32:19.182Z,4.68
2022-11-06T18:34:45.576Z,5.13
2022-11-06T18:37:11.989Z,6.15
2022-11-06T18:39:39.683Z,6.10
2022-11-06T18:42:06.178Z,5.93
2022-11-06T18:44:34.949Z,5.45
2022-11-06T18:47:01.582Z,5.97
2022-11-06T18:49:28.011Z,6.15
2022-11-06T18:51:54.442Z,6.18
2022-11-06T18:54:20.858Z,6.93
2022-11-06T18:56:47.272Z,7.00
2022-11-06T18:59:16.459Z,8.00
2022-11-06T19:01:42.960Z,6.18
2022-11-06T19:04:10.626Z,7.35
2022-11-06T19:06:39.147Z,7.78
2022-11-06T19:09:09.517Z,7.10
2022-11-06T19:11:35.983Z,7.00
2022-11-06T19:14:02.410Z,7.47
2022-11-06T19:16:28.960Z,8.18
2022-11-06T19:21:28.971Z,8.82
2022-11-06T19:24:03.329Z,9.32
2022-11-06T19:26:31.711Z,8.77
2022-11-06T19:28:59.958Z,9.27
2022-11-06T19:31:29.203Z,9.50
2022-11-06T19:33:57.271Z,10.18
2022-11-06T19:36:25.111Z,9.18
2022-11-06T19:38:51.914Z,10.10
2022-11-06T19:41:18.396Z,9.75
2022-11-06T19:43:44.963Z,10.25
2022-11-06T19:46:11.642Z,11.95
2022-11-06T19:48:38.270Z,11.77
2022-11-06T19:51:09.976Z,11.48
2022-11-06T19:56:08.223Z,10.75
2022-11-06T19:58:35.454Z,12.57
2022-11-06T20:01:09.511Z,12.80
2022-11-06T20:03:36.723Z,13.23
2022-11-06T20:06:07.867Z,14.70
2022-11-06T20:08:35.800Z,14.82
2022-11-06T20:16:31.280Z,16.02
2022-11-06T20:18:58.997Z,18.75
2022-11-06T20:21:27.967Z,19.17
2022-11-06T20:23:56.289Z,20.10
2022-11-06T20:26:23.372Z,20.50
2022-11-06T20:28:51.251Z,23.35
2022-11-06T20:33:57.571Z,22.65
2022-11-06T20:36:26.530Z,22.75
2022-11-06T20:38:54.427Z,23.42
2022-11-06T20:41:21.527Z,22.27
2022-11-06T20:43:48.132Z,20.85
2022-11-06T20:46:15.643Z,21.13
2022-11-06T20:48:42.979Z,18.65
2022-11-06T20:51:13.344Z,19.90
2022-11-06T20:53:40.394Z,20.15
2022-11-06T20:56:09.892Z,18.77
2022-11-06T20:58:36.847Z,19.35
2022-11-06T21:01:17.978Z,18.92
2022-11-06T21:03:45.246Z,17.85
2022-11-06T21:06:11.996Z,17.83
2022-11-06T21:08:40.035Z,17.20
2022-11-06T21:11:11.435Z,17.70
2022-11-06T21:13:40.392Z,16.75
2022-11-06T21:16:11.435Z,15.75
2022-11-06T21:18:39.213Z,15.82
2022-11-06T21:21:08.446Z,16.38
2022-11-06T21:23:35.773Z,15.75
2022-11-06T21:26:25.734Z,16.80
2022-11-06T21:28:52.673Z,17.13
2022-11-06T21:31:25.107Z,16.73
2022-11-06T21:33:53.213Z,17.48
2022-11-06T21:36:22.969Z,17.23
2022-11-06T21:38:50.003Z,17.33
2022-11-06T21:41:20.131Z,17.52
2022-11-06T21:43:48.152Z,17.38
2022-11-06T21:46:14.955Z,17.27
2022-11-06T21:48:46.948Z,17.50
2022-11-06T21:51:20.314Z,16.13
2022-11-06T21:54:05.657Z,18.08
2022-11-06T21:56:33.143Z,16.98
2022-11-06T21:59:01.468Z,16.50
2022-11-06T22:01:28.711Z,17.45
2022-11-06T22:03:55.345Z,17.20
2022-11-06T22:06:25.149Z,18.33
2022-11-06T22:08:54.151Z,17.33
2022-11-06T22:11:23.541Z,16.75
2022-11-06T22:16:28.347Z,17.00
2022-11-06T22:18:55.509Z,18.45
2022-11-06T22:21:24.496Z,17.65
2022-11-06T22:26:35.271Z,17.77
2022-11-06T22:29:06.288Z,17.38
2022-11-06T22:31:33.176Z,17.85
2022-11-06T22:33:59.702Z,16.75
2022-11-06T22:36:26.845Z,16.88
2022-11-06T22:44:10.083Z,15.82
2022-11-06T22:46:36.819Z,17.02
2022-11-06T22:49:04.254Z,16.55
2022-11-06T22:51:32.220Z,16.88
2022-11-06T22:53:59.816Z,16.70
2022-11-06T22:56:27.388Z,17.10
2022-11-06T22:58:55.218Z,16.42
2022-11-06T23:01:27.124Z,15.57
2022-11-06T23:03:56.699Z,17.45
2022-11-06T23:06:24.840Z,16.88
2022-11-06T23:08:54.571Z,16.65
2022-11-06T23:11:24.899Z,17.38
2022-11-06T23:13:51.879Z,15.98
2022-11-06T23:19:25.607Z,16.67
2022-11-06T23:22:12.059Z,17.08
2022-11-06T23:24:38.625Z,17.35
2022-11-06T23:27:05.460Z,17.42
2022-11-06T23:29:31.961Z,17.90
2022-11-06T23:31:58.356Z,18.20
2022-11-06T23:34:24.774Z,18.40
2022-11-06T23:36:51.454Z,19.40
2022-11-06T23:39:17.883Z,18.65
2022-11-06T23:49:50.123Z,18.85
2022-11-06T23:58:01.070Z,17.95
